CheckWX is a tool to help pilots better visualize weather data.  It is not intended as a substitute for an official pre-flight weather briefing.

22:19:47 UTC

KTRM METAR
Jacqueline Cochran Regional Airport
Palm Springs, California, USA
Current

28 mins ago

KTRM 222152Z AUTO VRB04KT 10SM CLR 22/06 A3008 RMK AO2 SLP185 T02220056
Observed
Jan-22 @ 21:52 UTC
Wind
  • Variable at 4 KTS
Visibility
10 SM
Flight Rules
VFR
Cloud Levels
  • Clear skies
Temperature
22°C / 72°F
Dewpoint
C / 43°F
Humidity
36%
Altimeter
30.08" Hg
Pressure
1018.62 hPa
Previous

1 hour ago

KTRM 222052Z AUTO VRB03KT 10SM CLR 21/06 A3011 RMK AO2 SLP195 T02110061 58021
Observed
Jan-22 @ 20:52 UTC
Wind
  • Variable at 3 KTS
Visibility
10 SM
Flight Rules
VFR
Cloud Levels
  • Clear skies
Temperature
21°C / 70°F
Dewpoint
C / 43°F
Humidity
38%
Altimeter
30.11" Hg
Pressure
1019.62 hPa
Previous

2 hours ago

KTRM 221952Z AUTO VRB03KT 10SM CLR 20/07 A3013 RMK AO2 SLP204 T02000072
Observed
Jan-22 @ 19:52 UTC
Wind
  • Variable at 3 KTS
Visibility
10 SM
Flight Rules
VFR
Cloud Levels
  • Clear skies
Temperature
20°C / 68°F
Dewpoint
C / 45°F
Humidity
43%
Altimeter
30.13" Hg
Pressure
1020.32 hPa